Seago Piraeus — OXVD2 — position and weather

sailwx.info

Track history (hours):
 
Tides and Currents Weather Stations Pressure Air Temp Water Temp Dewpoint Dewpoint Depression Visibility Wind Speed Wind Dir Waves Ship Positions

Seago Piraeus

Last reported at 2014-Jul-24 22:27 UTC. Time now 2014-Jul-24 23:03 UTC.
Position N 39°26' W 000°19'.

Length 294 m; draft 10.6 m.

Type: Ship (hazmat cat A). MMSI: 219117000.

Date/timePositionNaut miles runAvg speedWind from/ knotsBaromVisibWave heightAir tempDewpointWater temp
2014-Jul-24 22:27N 39°26' W 000°19'0 0.0
2014-Jul-24 21:30N 39°26' W 000°19'0 0.0
2014-Jul-24 20:30N 39°26' W 000°19'0 0.0
2014-Jul-24 18:09N 39°26' W 000°19'0 0.0
2014-Jul-24 17:09N 39°26' W 000°19'0 0.0
2014-Jul-24 16:33N 39°26' W 000°19'0 0.0
2014-Jul-24 15:33N 39°26' W 000°19'0 0.0
2014-Jul-24 14:33N 39°26' W 000°19'0 0.0
2014-Jul-24 13:33N 39°26' W 000°19'4 3.8
2014-Jul-24 12:33N 39°26' W 000°15'2 2.0
2014-Jul-24 11:34N 39°24' W 000°13'4411.0
2014-Jul-24 07:31N 39°18' E 000°44'1414.9
2014-Jul-24 06:33N 39°16' E 001°02'1514.8
2014-Jul-24 05:33N 39°13' E 001°21'1514.7
2014-Jul-24 04:33N 39°11' E 001°40'1514.7
2014-Jul-24 03:33N 39°08' E 001°59'1515.0
2014-Jul-24 02:33N 39°05' E 002°17'1515.4
2014-Jul-24 01:33N 39°01' E 002°37'1515.3
2014-Jul-24 00:33N 38°57' E 002°56'1515.3
2014-Jul-23 23:33N 38°54' E 003°15'1616.1
2014-Jul-23 22:33N 38°50' E 003°35'1414.5
2014-Jul-23 21:33N 38°47' E 003°53'1515.4
2014-Jul-23 20:33N 38°43' E 004°12'3715.6
2014-Jul-23 18:13N 38°34' E 004°58'1216.7
2014-Jul-23 17:29N 38°31' E 005°13'1515.3
2014-Jul-23 16:32N 38°28' E 005°31'38713.8
2014-Jul-22 12:33N 36°48' E 013°22'1514.0
2014-Jul-22 11:27N 36°43' E 013°41'1314.3
2014-Jul-22 10:33N 36°40' E 013°56'1414.0
2014-Jul-22 09:33N 36°36' E 014°13'1414.0
2014-Jul-22 08:33N 36°31' E 014°29'42614.2
2014-Jul-21 02:29N 36°32' E 023°19'10214.6
2014-Jul-20 19:28N 37°55' E 024°33'1914.9
2014-Jul-20 18:12N 38°06' E 024°53'2313.7
2014-Jul-20 16:33N 38°18' E 025°17'1414.2
2014-Jul-20 15:33N 38°26' E 025°32'1414.0
2014-Jul-20 14:32N 38°35' E 025°47'33 1.0
2014-Jul-19 05:18N 39°08' E 025°47'3511.5
2014-Jul-19 02:14N 39°43' E 025°49'912.0
2014-Jul-19 01:31N 39°52' E 025°51'5711.5
2014-Jul-18 20:31N 40°28' E 026°50'  
Track history (hours):
 
Tides and Currents Weather Stations Pressure Air Temp Water Temp Dewpoint Dewpoint Depression Visibility Wind Speed Wind Dir Waves Ship Positions

Seago Piraeus

Last reported at 2014-Jul-24 22:27 UTC. Time now 2014-Jul-24 23:03 UTC.
Position N 39°26' W 000°19'.

Length 294 m; draft 10.6 m.

Type: Ship (hazmat cat A). MMSI: 219117000.

Date/timePositionNaut miles runAvg speedWind from/ knotsBaromVisibWave heightAir tempDewpointWater temp
2014-Jul-24 22:27N 39°26' W 000°19'0 0.0
2014-Jul-24 21:30N 39°26' W 000°19'0 0.0
2014-Jul-24 20:30N 39°26' W 000°19'0 0.0
2014-Jul-24 18:09N 39°26' W 000°19'0 0.0
2014-Jul-24 17:09N 39°26' W 000°19'0 0.0
2014-Jul-24 16:33N 39°26' W 000°19'0 0.0
2014-Jul-24 15:33N 39°26' W 000°19'0 0.0
2014-Jul-24 14:33N 39°26' W 000°19'0 0.0
2014-Jul-24 13:33N 39°26' W 000°19'4 3.8
2014-Jul-24 12:33N 39°26' W 000°15'2 2.0
2014-Jul-24 11:34N 39°24' W 000°13'4411.0
2014-Jul-24 07:31N 39°18' E 000°44'1414.9
2014-Jul-24 06:33N 39°16' E 001°02'1514.8
2014-Jul-24 05:33N 39°13' E 001°21'1514.7
2014-Jul-24 04:33N 39°11' E 001°40'1514.7
2014-Jul-24 03:33N 39°08' E 001°59'1515.0
2014-Jul-24 02:33N 39°05' E 002°17'1515.4
2014-Jul-24 01:33N 39°01' E 002°37'1515.3
2014-Jul-24 00:33N 38°57' E 002°56'1515.3
2014-Jul-23 23:33N 38°54' E 003°15'1616.1
2014-Jul-23 22:33N 38°50' E 003°35'1414.5
2014-Jul-23 21:33N 38°47' E 003°53'1515.4
2014-Jul-23 20:33N 38°43' E 004°12'3715.6
2014-Jul-23 18:13N 38°34' E 004°58'1216.7
2014-Jul-23 17:29N 38°31' E 005°13'1515.3
2014-Jul-23 16:32N 38°28' E 005°31'38713.8
2014-Jul-22 12:33N 36°48' E 013°22'1514.0
2014-Jul-22 11:27N 36°43' E 013°41'1314.3
2014-Jul-22 10:33N 36°40' E 013°56'1414.0
2014-Jul-22 09:33N 36°36' E 014°13'1414.0
2014-Jul-22 08:33N 36°31' E 014°29'42614.2
2014-Jul-21 02:29N 36°32' E 023°19'10214.6
2014-Jul-20 19:28N 37°55' E 024°33'1914.9
2014-Jul-20 18:12N 38°06' E 024°53'2313.7
2014-Jul-20 16:33N 38°18' E 025°17'1414.2
2014-Jul-20 15:33N 38°26' E 025°32'1414.0
2014-Jul-20 14:32N 38°35' E 025°47'33 1.0
2014-Jul-19 05:18N 39°08' E 025°47'3511.5
2014-Jul-19 02:14N 39°43' E 025°49'912.0
2014-Jul-19 01:31N 39°52' E 025°51'5711.5
2014-Jul-18 20:31N 40°28' E 026°50'  

Dump ship's entire track history